Time;durP1;ratioP1;P1;durP2;ratioP2;P2;SDS_P1;SDS_P2;PMS_P1;PMS_P2;Temp;Humidity;BMP_temperature;BMP_pressure;BME280_temperature;BME280_humidity;BME280_pressure;Samples;Min_cycle;Max_cycle;Signal;HPM_P1;HPM_P2
2023/05/22 00:01:43;;;;;;;19.20;17.33;;;18.40;99.90;;;;;;4956293;28;20043;-78
2023/05/22 00:04:12;;;;;;;19.25;16.70;;;18.70;99.90;;;;;;4949028;28;20047;-79
2023/05/22 00:06:41;;;;;;;20.77;18.70;;;17.50;99.90;;;;;;4956108;28;20065;-78
2023/05/22 00:09:07;;;;;;;21.27;16.65;;;17.90;99.90;;;;;;4947536;28;20039;-79
2023/05/22 00:11:34;;;;;;;20.85;18.77;;;17.80;99.90;;;;;;4948315;28;20063;-79
2023/05/22 00:14:00;;;;;;;20.75;18.63;;;17.50;99.90;;;;;;4943561;28;20047;-80
2023/05/22 00:16:26;;;;;;;19.23;17.27;;;17.50;99.90;;;;;;4952744;28;20078;-81
2023/05/22 00:18:52;;;;;;;20.58;17.50;;;17.50;99.90;;;;;;4951885;28;20043;-79
2023/05/22 00:21:18;;;;;;;20.80;18.00;;;17.50;99.90;;;;;;4956641;28;20653;-78
2023/05/22 00:23:44;;;;;;;23.25;17.27;;;18.20;99.90;;;;;;4957632;28;20529;-80
2023/05/22 00:26:13;;;;;;;22.08;19.80;;;17.50;99.90;;;;;;4954551;28;20082;-80
2023/05/22 00:28:39;;;;;;;20.67;17.23;;;17.50;99.90;;;;;;4955503;28;20043;-80
2023/05/22 00:31:04;;;;;;;19.98;17.92;;;18.20;99.90;;;;;;4953342;28;20454;-80
2023/05/22 00:33:30;;;;;;;17.77;16.05;;;17.50;99.90;;;;;;4959993;28;20046;-80
2023/05/22 00:35:55;;;;;;;19.83;17.67;;;17.50;99.90;;;;;;4952734;28;20035;-78
2023/05/22 00:38:33;;;;;;;19.42;17.38;;;18.50;99.90;;;;;;4954595;28;20047;-82
2023/05/22 00:41:03;;;;;;;19.58;17.48;;;17.50;99.90;;;;;;4950376;28;20084;-80
2023/05/22 00:43:29;;;;;;;20.38;18.27;;;17.50;99.90;;;;;;4959719;28;20039;-84
2023/05/22 00:45:55;;;;;;;19.63;17.52;;;19.10;99.90;;;;;;4955553;28;20046;-79
2023/05/22 00:48:21;;;;;;;21.95;17.63;;;17.50;99.90;;;;;;4937545;28;20043;-79
2023/05/22 00:50:52;;;;;;;19.30;17.25;;;18.40;99.90;;;;;;4947705;28;20043;-79
2023/05/22 00:53:20;;;;;;;21.85;19.80;;;17.50;99.90;;;;;;4963500;28;20487;-80
2023/05/22 00:55:46;;;;;;;22.08;19.80;;;17.40;99.90;;;;;;4961318;28;20057;-80
2023/05/22 00:58:17;;;;;;;20.35;18.27;;;17.40;99.90;;;;;;4959973;28;20043;-81
2023/05/22 01:00:44;;;;;;;21.25;18.92;;;17.40;99.90;;;;;;4953768;28;20479;-80
2023/05/22 01:03:10;;;;;;;21.25;19.05;;;17.40;99.90;;;;;;4935304;29;20047;-79
2023/05/22 01:05:37;;;;;;;20.83;18.73;;;17.40;99.90;;;;;;4952641;28;20538;-79
2023/05/22 01:08:05;;;;;;;27.02;20.50;;;17.80;99.90;;;;;;4959143;28;20039;-81
2023/05/22 01:10:32;;;;;;;23.77;21.10;;;17.40;99.90;;;;;;4950819;28;20043;-80
2023/05/22 01:13:22;;;;;;;30.63;20.52;;;18.40;99.90;;;;;;4958465;28;20277;-80
2023/05/22 01:16:36;;;;;;;21.83;19.63;;;17.40;99.90;;;;;;4947462;28;20110;-80
2023/05/22 01:19:08;;;;;;;24.15;18.98;;;17.30;99.90;;;;;;4957871;28;20042;-80
2023/05/22 01:21:52;;;;;;;21.80;18.60;;;17.40;99.90;;;;;;4951632;28;20047;-80
2023/05/22 01:25:01;;;;;;;23.85;18.98;;;17.40;99.90;;;;;;4943868;28;20058;-77
2023/05/22 01:28:01;;;;;;;21.10;18.88;;;17.40;99.90;;;;;;4935434;28;20062;-81
2023/05/22 01:30:42;;;;;;;20.80;18.65;;;17.30;99.90;;;;;;4944277;28;20094;-79
2023/05/22 01:33:15;;;;;;;23.38;21.02;;;17.30;99.90;;;;;;4945812;28;20055;-80
2023/05/22 01:35:44;;;;;;;24.88;22.08;;;17.30;99.90;;;;;;4944824;28;20039;-79
2023/05/22 01:38:10;;;;;;;25.08;21.35;;;17.30;99.90;;;;;;4943636;28;20384;-81
2023/05/22 01:40:36;;;;;;;23.05;20.65;;;17.40;99.90;;;;;;4945420;28;20085;-82
2023/05/22 01:43:02;;;;;;;22.00;19.70;;;17.20;99.90;;;;;;4952639;28;20742;-79
2023/05/22 01:45:30;;;;;;;23.02;20.77;;;17.30;99.90;;;;;;4956810;28;20044;-82
2023/05/22 01:47:56;;;;;;;22.17;19.90;;;17.30;99.90;;;;;;4956479;28;20126;-79
2023/05/22 01:50:22;;;;;;;21.73;19.25;;;17.30;99.90;;;;;;4959267;28;20482;-82
2023/05/22 01:53:18;;;;;;;22.20;20.15;;;17.40;99.90;;;;;;4954967;28;20118;-80
2023/05/22 01:56:04;;;;;;;22.30;20.10;;;17.30;99.90;;;;;;4958684;28;20055;-80
2023/05/22 01:58:51;;;;;;;23.85;20.20;;;17.30;99.90;;;;;;4963926;28;20402;-80
2023/05/22 02:01:19;;;;;;;25.13;22.20;;;18.60;99.90;;;;;;4959547;28;20182;-81
2023/05/22 02:03:50;;;;;;;25.55;21.77;;;17.90;99.90;;;;;;4960399;28;20090;-82
2023/05/22 02:06:18;;;;;;;24.63;21.30;;;17.30;99.90;;;;;;4954906;28;20495;-80
2023/05/22 02:08:44;;;;;;;27.48;21.63;;;17.20;99.90;;;;;;4961508;28;20056;-81
2023/05/22 02:11:12;;;;;;;22.77;20.58;;;17.30;99.90;;;;;;4959837;28;20634;-81
2023/05/22 02:13:39;;;;;;;23.77;21.35;;;17.30;99.90;;;;;;4958067;28;20050;-79
2023/05/22 02:16:06;;;;;;;23.67;21.20;;;17.20;99.90;;;;;;4955603;28;20130;-79
2023/05/22 02:18:31;;;;;;;25.08;21.10;;;17.30;99.90;;;;;;4956226;28;20054;-80
2023/05/22 02:20:58;;;;;;;24.20;21.75;;;17.30;99.90;;;;;;4947776;28;20051;-81
2023/05/22 02:23:23;;;;;;;24.05;20.98;;;17.70;99.90;;;;;;4957464;28;20418;-80
2023/05/22 02:25:54;;;;;;;24.67;21.92;;;17.30;99.90;;;;;;4954212;28;20043;-81
2023/05/22 02:28:20;;;;;;;22.55;20.38;;;17.20;99.90;;;;;;4955339;28;20047;-80
2023/05/22 02:30:46;;;;;;;22.30;19.95;;;17.20;99.90;;;;;;4966413;28;20049;-81
2023/05/22 02:33:11;;;;;;;23.52;21.00;;;17.70;99.90;;;;;;4956071;28;20046;-80
2023/05/22 02:35:37;;;;;;;23.65;21.08;;;17.20;99.90;;;;;;4960320;28;20685;-80
2023/05/22 02:38:03;;;;;;;22.92;20.75;;;17.20;99.90;;;;;;4958703;28;20046;-79
2023/05/22 02:40:34;;;;;;;25.58;21.38;;;17.20;99.90;;;;;;4975467;28;20039;-79
2023/05/22 02:43:03;;;;;;;25.35;22.70;;;17.20;99.90;;;;;;4954705;28;20051;-79
2023/05/22 02:45:29;;;;;;;25.15;22.38;;;17.20;99.90;;;;;;4960854;28;20039;-80
2023/05/22 02:47:55;;;;;;;25.02;22.40;;;17.20;99.90;;;;;;4952913;28;20047;-80
2023/05/22 02:50:21;;;;;;;24.33;21.95;;;16.70;99.90;;;;;;4952248;28;20071;-78
2023/05/22 02:52:48;;;;;;;24.42;21.73;;;17.10;99.90;;;;;;4952086;28;20055;-78
2023/05/22 02:55:14;;;;;;;25.83;23.13;;;17.10;99.90;;;;;;4950989;28;20075;-78
2023/05/22 02:57:39;;;;;;;25.63;23.02;;;17.10;99.90;;;;;;4954871;28;20047;-82
2023/05/22 03:00:10;;;;;;;24.70;22.10;;;17.10;99.90;;;;;;4956829;28;20170;-78
2023/05/22 03:02:38;;;;;;;24.88;22.20;;;17.00;99.90;;;;;;4951641;28;20050;-79
2023/05/22 03:05:05;;;;;;;25.17;22.52;;;17.50;99.90;;;;;;4956258;28;20097;-79
2023/05/22 03:07:30;;;;;;;24.05;21.55;;;17.00;99.90;;;;;;4951482;28;20046;-80
2023/05/22 03:09:56;;;;;;;26.02;23.50;;;18.60;99.90;;;;;;4942507;28;20044;-79
2023/05/22 03:12:22;;;;;;;27.10;24.17;;;17.00;99.90;;;;;;4947000;28;20090;-80
2023/05/22 03:14:48;;;;;;;25.25;22.58;;;16.90;99.90;;;;;;4944050;28;20051;-79
2023/05/22 03:17:13;;;;;;;26.23;23.50;;;17.60;99.90;;;;;;4944538;28;20058;-80
2023/05/22 03:19:40;;;;;;;25.88;23.17;;;17.70;99.90;;;;;;4961015;28;20542;-79
2023/05/22 03:22:06;;;;;;;26.92;23.35;;;17.50;99.90;;;;;;4963114;28;20522;-79
2023/05/22 03:24:31;;;;;;;29.25;23.52;;;16.90;99.90;;;;;;4952511;28;20055;-82
2023/05/22 03:26:58;;;;;;;25.15;22.55;;;16.90;99.90;;;;;;4963929;28;20053;-79
2023/05/22 03:29:25;;;;;;;28.25;24.02;;;16.90;99.90;;;;;;4959816;28;20131;-80
2023/05/22 03:31:52;;;;;;;27.20;24.27;;;18.10;99.90;;;;;;4958741;28;20043;-80
2023/05/22 03:34:18;;;;;;;29.00;24.48;;;16.90;99.90;;;;;;4949765;28;20047;-80
2023/05/22 03:36:44;;;;;;;26.60;23.77;;;16.90;99.90;;;;;;4953262;28;20403;-82
2023/05/22 03:39:09;;;;;;;24.60;22.10;;;16.90;99.90;;;;;;4958604;28;20051;-78
2023/05/22 03:41:35;;;;;;;26.25;23.55;;;16.80;99.90;;;;;;4959223;28;20054;-79
2023/05/22 03:44:02;;;;;;;27.02;23.35;;;17.30;99.90;;;;;;4956193;28;20525;-79
2023/05/22 03:46:27;;;;;;;26.10;23.15;;;16.80;99.90;;;;;;4956803;28;20043;-81
2023/05/22 03:48:53;;;;;;;25.48;22.88;;;16.80;99.90;;;;;;4958949;28;20506;-78
2023/05/22 03:51:19;;;;;;;26.08;23.38;;;17.80;99.90;;;;;;4954625;28;20043;-79
2023/05/22 03:53:44;;;;;;;27.23;24.33;;;18.30;99.90;;;;;;4954672;28;20047;-80
2023/05/22 03:56:10;;;;;;;25.23;22.73;;;17.10;99.90;;;;;;4955037;28;20035;-82
2023/05/22 03:58:36;;;;;;;27.65;23.73;;;18.20;99.90;;;;;;4954750;28;20546;-83
2023/05/22 04:01:03;;;;;;;28.00;24.98;;;16.80;99.90;;;;;;4959185;28;20043;-84
2023/05/22 04:03:28;;;;;;;27.52;24.50;;;17.60;99.90;;;;;;4957972;28;20487;-81
2023/05/22 04:05:55;;;;;;;25.75;22.95;;;18.10;99.90;;;;;;4956219;28;20043;-80
2023/05/22 04:08:21;;;;;;;26.70;24.00;;;16.70;99.90;;;;;;4954130;28;20557;-81
2023/05/22 04:10:47;;;;;;;27.60;23.58;;;17.80;99.90;;;;;;4956799;28;20055;-79
2023/05/22 04:13:15;;;;;;;29.08;26.20;;;16.70;99.90;;;;;;4956371;28;20666;-78
2023/05/22 04:15:42;;;;;;;27.45;24.15;;;16.70;99.90;;;;;;4950334;28;20079;-80
2023/05/22 04:18:08;;;;;;;27.83;24.83;;;16.70;99.90;;;;;;4948683;28;20118;-78
2023/05/22 04:20:34;;;;;;;25.00;22.50;;;16.90;99.90;;;;;;4955734;28;20483;-81
2023/05/22 04:23:00;;;;;;;28.23;25.17;;;16.60;99.90;;;;;;4954068;28;20047;-79
2023/05/22 04:25:25;;;;;;;27.15;23.85;;;16.70;99.90;;;;;;4957056;28;20073;-80
2023/05/22 04:27:52;;;;;;;26.90;24.00;;;16.60;99.90;;;;;;4959714;28;20051;-82
2023/05/22 04:30:17;;;;;;;28.00;24.60;;;18.40;99.90;;;;;;4957367;28;20045;-80
2023/05/22 04:32:43;;;;;;;31.35;25.70;;;16.60;99.90;;;;;;4958341;28;20047;-79
2023/05/22 04:35:11;;;;;;;29.17;26.17;;;17.00;99.90;;;;;;4948985;28;20074;-78
2023/05/22 04:37:41;;;;;;;29.90;25.80;;;16.60;99.90;;;;;;4957400;28;20125;-80
2023/05/22 04:40:14;;;;;;;30.25;25.38;;;16.50;99.90;;;;;;4949567;28;20051;-78
2023/05/22 04:42:41;;;;;;;27.38;24.42;;;16.50;99.90;;;;;;4946721;28;20131;-77
2023/05/22 04:45:08;;;;;;;25.88;22.98;;;17.70;99.90;;;;;;4948910;28;20137;-81
2023/05/22 04:47:37;;;;;;;27.17;24.38;;;16.50;99.90;;;;;;4971086;28;20039;-82
2023/05/22 04:50:03;;;;;;;28.38;25.25;;;16.60;99.90;;;;;;4941874;28;20057;-79
2023/05/22 04:52:29;;;;;;;27.25;24.35;;;16.50;99.90;;;;;;4971882;28;20047;-80
2023/05/22 04:54:55;;;;;;;28.13;23.73;;;16.60;99.90;;;;;;4940959;28;20054;-80
2023/05/22 04:57:26;;;;;;;27.27;24.20;;;16.50;99.90;;;;;;4945415;28;20074;-79
2023/05/22 04:59:53;;;;;;;26.60;23.80;;;16.50;99.90;;;;;;4950196;28;20043;-82
2023/05/22 05:02:18;;;;;;;28.00;23.00;;;16.50;99.90;;;;;;4950507;28;20035;-80
2023/05/22 05:04:45;;;;;;;25.35;22.67;;;16.90;99.90;;;;;;4951554;28;20051;-82
2023/05/22 05:07:12;;;;;;;26.15;22.92;;;16.50;99.90;;;;;;4959657;28;20078;-81
2023/05/22 05:09:38;;;;;;;26.02;23.20;;;17.90;99.90;;;;;;4954493;28;20151;-81
2023/05/22 05:12:03;;;;;;;26.77;23.35;;;17.50;99.90;;;;;;4949320;28;20064;-81
2023/05/22 05:14:29;;;;;;;25.00;22.42;;;16.50;99.90;;;;;;4951933;28;20055;-81
2023/05/22 05:16:55;;;;;;;24.48;21.50;;;16.50;99.90;;;;;;4956207;28;20043;-81
2023/05/22 05:19:21;;;;;;;31.33;23.40;;;16.60;99.90;;;;;;4955321;28;20059;-82
2023/05/22 05:21:48;;;;;;;24.77;22.02;;;17.30;99.90;;;;;;4948785;28;20411;-82
2023/05/22 05:24:16;;;;;;;24.92;21.15;;;17.50;99.90;;;;;;4946993;28;20470;-81
2023/05/22 05:26:42;;;;;;;22.42;20.00;;;16.50;99.90;;;;;;4948747;28;20390;-81
2023/05/22 05:29:07;;;;;;;23.10;20.67;;;17.80;99.90;;;;;;4953901;28;20035;-83
2023/05/22 05:31:34;;;;;;;23.08;20.60;;;17.00;99.90;;;;;;4962166;28;20046;-82
2023/05/22 05:34:00;;;;;;;23.65;21.15;;;16.50;99.90;;;;;;4961557;28;20116;-82
2023/05/22 05:36:36;;;;;;;22.25;19.92;;;16.50;99.90;;;;;;4958324;28;20047;-82
2023/05/22 05:39:01;;;;;;;23.40;20.65;;;16.50;99.90;;;;;;4957064;28;20051;-82
2023/05/22 05:41:27;;;;;;;26.42;21.40;;;16.60;99.90;;;;;;4955405;28;20047;-81
2023/05/22 05:43:56;;;;;;;26.65;20.88;;;16.50;99.90;;;;;;4958992;28;20039;-81
2023/05/22 05:46:51;;;;;;;23.27;20.25;;;16.50;99.90;;;;;;4980587;28;20034;-78
2023/05/22 05:49:18;;;;;;;23.50;20.55;;;17.70;99.90;;;;;;4949247;28;20047;-79
2023/05/22 05:51:43;;;;;;;25.10;19.15;;;16.50;99.90;;;;;;4957978;28;20078;-79
2023/05/22 05:54:09;;;;;;;21.13;18.92;;;16.50;99.90;;;;;;4962276;28;20089;-80
2023/05/22 05:56:35;;;;;;;25.65;19.80;;;15.40;99.90;;;;;;4958421;28;20065;-79
2023/05/22 05:59:01;;;;;;;21.08;18.73;;;17.70;99.90;;;;;;4961203;28;20709;-80
2023/05/22 06:01:27;;;;;;;20.75;15.95;;;16.20;99.90;;;;;;4963008;28;20038;-80
2023/05/22 06:03:52;;;;;;;19.95;15.02;;;16.60;99.90;;;;;;4964324;28;20103;-80
2023/05/22 06:06:18;;;;;;;18.60;13.27;;;16.60;99.90;;;;;;4959036;28;20047;-80
2023/05/22 06:08:44;;;;;;;16.88;13.98;;;17.70;99.90;;;;;;4959012;28;20559;-79
2023/05/22 06:11:10;;;;;;;19.38;13.18;;;16.60;99.90;;;;;;4968700;28;20478;-81
2023/05/22 06:13:35;;;;;;;20.92;16.60;;;16.60;99.90;;;;;;4975865;28;20047;-80
2023/05/22 06:16:01;;;;;;;18.88;13.05;;;16.60;99.90;;;;;;4962591;28;20039;-79
2023/05/22 06:18:27;;;;;;;18.60;12.82;;;17.30;99.90;;;;;;4961397;28;20126;-81
2023/05/22 06:20:52;;;;;;;20.30;14.00;;;16.80;99.90;;;;;;4959174;28;20058;-79
2023/05/22 06:23:18;;;;;;;18.52;12.13;;;17.90;99.90;;;;;;4971769;28;20127;-79
2023/05/22 06:25:44;;;;;;;21.98;12.57;;;16.80;99.90;;;;;;4969687;28;20494;-81
2023/05/22 06:28:10;;;;;;;24.95;13.05;;;16.50;99.90;;;;;;4958404;28;20042;-79
2023/05/22 06:30:36;;;;;;;17.85;12.93;;;16.50;99.90;;;;;;4955093;28;20273;-82
2023/05/22 06:33:02;;;;;;;22.50;12.80;;;16.50;99.90;;;;;;4958078;28;20447;-81
2023/05/22 06:35:29;;;;;;;21.00;12.13;;;16.50;99.90;;;;;;4957196;28;20837;-78
2023/05/22 06:37:56;;;;;;;17.65;12.68;;;16.50;99.90;;;;;;4609486;28;10000221;-82
2023/05/22 06:40:21;;;;;;;21.42;11.95;;;16.50;99.90;;;;;;4961081;28;20780;-81
2023/05/22 06:42:47;;;;;;;21.13;12.60;;;16.50;99.90;;;;;;4962957;28;20042;-79
2023/05/22 07:20:38;;;;;;;15.02;6.95;;;16.30;99.90;;;;;;5106935;23;20506;-79
2023/05/22 07:23:03;;;;;;;14.32;7.15;;;16.50;99.90;;;;;;5008796;28;20041;-80
2023/05/22 07:25:29;;;;;;;15.15;7.50;;;16.40;99.90;;;;;;5002195;28;20077;-78
2023/05/22 07:27:57;;;;;;;13.13;6.65;;;16.30;99.90;;;;;;4989075;28;20046;-79
2023/05/22 07:30:23;;;;;;;14.60;7.20;;;16.40;99.90;;;;;;5009471;28;20494;-79
2023/05/22 07:32:48;;;;;;;14.05;7.13;;;16.30;99.90;;;;;;5010435;28;20551;-80
2023/05/22 07:35:14;;;;;;;12.77;6.93;;;16.40;99.90;;;;;;5011056;28;20049;-79
2023/05/22 07:37:42;;;;;;;15.50;7.05;;;16.40;99.90;;;;;;5010802;28;20060;-78
2023/05/22 07:40:09;;;;;;;14.43;7.13;;;16.40;99.90;;;;;;5008211;28;20589;-78
2023/05/22 07:42:36;;;;;;;13.82;6.90;;;16.40;99.90;;;;;;5002536;28;20067;-77
2023/05/22 07:45:02;;;;;;;15.05;6.70;;;16.40;99.90;;;;;;5008356;28;20045;-80
2023/05/22 07:47:28;;;;;;;13.25;6.22;;;16.40;99.90;;;;;;5009297;28;20045;-81
2023/05/22 07:49:54;;;;;;;15.43;6.97;;;16.40;99.90;;;;;;5010576;28;20038;-83
2023/05/22 07:52:20;;;;;;;13.38;6.45;;;17.60;99.90;;;;;;5008301;28;20041;-77
2023/05/22 07:54:46;;;;;;;14.15;6.10;;;16.70;99.90;;;;;;5001594;28;20135;-79
2023/05/22 07:57:16;;;;;;;12.35;6.07;;;16.40;99.90;;;;;;5011713;28;20645;-81
2023/05/22 07:59:42;;;;;;;13.68;7.30;;;17.10;99.90;;;;;;5008813;28;20038;-82
2023/05/22 08:02:08;;;;;;;15.93;6.68;;;16.40;99.90;;;;;;5010354;28;20048;-82
2023/05/22 08:04:34;;;;;;;10.23;6.38;;;17.20;99.90;;;;;;5008663;28;20113;-81
2023/05/22 08:07:00;;;;;;;12.18;5.82;;;17.00;99.90;;;;;;5009986;28;20068;-82
2023/05/22 08:09:27;;;;;;;10.00;6.07;;;16.40;99.90;;;;;;5009554;28;20721;-81
2023/05/22 08:11:52;;;;;;;8.77;6.63;;;16.40;99.90;;;;;;5009558;28;20064;-82
2023/05/22 08:14:20;;;;;;;12.35;6.32;;;17.80;99.90;;;;;;5008707;28;20042;-83
2023/05/22 08:16:45;;;;;;;9.85;6.25;;;16.50;99.90;;;;;;5006066;28;20084;-84
2023/05/22 08:19:11;;;;;;;11.90;6.25;;;16.50;99.90;;;;;;5008473;28;20085;-83
2023/05/22 08:21:36;;;;;;;11.60;6.28;;;16.50;99.90;;;;;;5009907;28;20038;-83
2023/05/22 08:24:02;;;;;;;29.15;15.13;;;16.50;99.90;;;;;;4994269;28;20042;-83
2023/05/22 08:26:28;;;;;;;19.80;11.90;;;16.50;99.90;;;;;;4987484;28;20114;-84
2023/05/22 08:28:54;;;;;;;10.13;7.00;;;16.60;99.90;;;;;;5011251;28;20484;-79
2023/05/22 08:31:19;;;;;;;12.95;6.07;;;16.60;99.90;;;;;;4992079;28;20150;-82
2023/05/22 08:33:45;;;;;;;13.07;7.00;;;16.60;99.90;;;;;;5009347;28;20044;-78
2023/05/22 08:36:12;;;;;;;10.57;6.32;;;18.00;99.90;;;;;;5008242;28;20042;-79
2023/05/22 08:38:37;;;;;;;10.77;6.63;;;17.80;99.90;;;;;;4990449;28;20138;-79
2023/05/22 08:41:04;;;;;;;10.18;6.28;;;18.00;99.90;;;;;;4992265;28;20470;-80
2023/05/22 08:43:30;;;;;;;15.30;6.70;;;16.60;99.90;;;;;;5006692;28;20176;-80
2023/05/22 08:46:05;;;;;;;13.65;7.15;;;16.90;99.90;;;;;;5007134;28;20125;-82
2023/05/22 08:48:32;;;;;;;12.80;6.45;;;16.70;99.90;;;;;;5008799;28;20053;-79
2023/05/22 08:51:04;;;;;;;15.48;7.10;;;16.70;99.90;;;;;;5007972;28;20056;-83
2023/05/22 08:53:35;;;;;;;11.20;6.90;;;16.70;99.90;;;;;;5007719;28;20046;-81
2023/05/22 08:56:03;;;;;;;14.35;6.55;;;16.70;99.90;;;;;;5006418;28;20037;-81
2023/05/22 08:58:31;;;;;;;12.95;6.75;;;16.70;99.90;;;;;;5006446;28;20034;-80
2023/05/22 09:00:57;;;;;;;11.30;6.63;;;16.90;99.90;;;;;;5007435;28;20540;-80
2023/05/22 09:03:27;;;;;;;14.13;7.63;;;17.30;99.90;;;;;;5013059;28;20049;-82
2023/05/22 09:05:53;;;;;;;15.95;7.93;;;16.80;99.90;;;;;;5008851;28;20514;-81
2023/05/22 09:08:20;;;;;;;13.05;6.60;;;16.80;99.90;;;;;;4990597;28;20054;-80
2023/05/22 09:10:46;;;;;;;10.93;6.90;;;17.40;99.90;;;;;;4988697;28;20096;-80
2023/05/22 09:13:24;;;;;;;12.43;6.93;;;16.90;99.90;;;;;;4987663;28;20038;-80
2023/05/22 09:15:50;;;;;;;12.98;7.47;;;17.00;99.90;;;;;;5011791;28;20038;-81
2023/05/22 09:18:15;;;;;;;13.50;7.10;;;17.60;99.90;;;;;;5008531;28;20080;-79
2023/05/22 09:20:41;;;;;;;9.95;7.07;;;17.00;99.90;;;;;;4995458;28;20050;-80
2023/05/22 09:23:16;;;;;;;14.13;7.60;;;18.00;99.90;;;;;;5018208;28;20054;-78
2023/05/22 09:25:43;;;;;;;11.45;7.78;;;17.20;99.90;;;;;;5014363;28;20038;-80
2023/05/22 09:28:10;;;;;;;15.77;8.10;;;17.20;99.90;;;;;;5012074;28;20046;-79
2023/05/22 09:30:36;;;;;;;16.80;7.57;;;17.30;99.90;;;;;;4993704;28;20117;-81
2023/05/22 09:33:03;;;;;;;13.98;7.75;;;18.80;99.90;;;;;;5012663;28;20117;-81
2023/05/22 09:35:31;;;;;;;17.05;7.88;;;17.50;99.90;;;;;;5013923;28;20128;-81
2023/05/22 09:37:57;;;;;;;18.40;8.35;;;17.90;99.90;;;;;;5011712;28;20042;-80
2023/05/22 09:40:26;;;;;;;12.05;8.43;;;17.60;99.90;;;;;;5004833;28;20102;-81
2023/05/22 09:42:51;;;;;;;14.32;8.00;;;17.80;99.90;;;;;;5019364;28;20042;-80
2023/05/22 09:45:21;;;;;;;15.48;11.02;;;17.90;99.90;;;;;;5013005;28;20116;-79
2023/05/22 09:47:48;;;;;;;18.85;14.07;;;18.00;99.90;;;;;;4993834;28;20045;-79
2023/05/22 09:50:14;;;;;;;14.80;8.90;;;18.00;99.90;;;;;;4993920;28;20033;-80
2023/05/22 09:52:43;;;;;;;11.77;8.25;;;18.00;99.90;;;;;;5012359;28;20052;-80
2023/05/22 09:55:09;;;;;;;13.25;8.35;;;18.10;99.90;;;;;;5012099;28;20476;-79
2023/05/22 09:57:45;;;;;;;13.57;8.70;;;18.20;99.90;;;;;;4997427;28;20056;-79
2023/05/22 10:00:16;;;;;;;13.35;9.27;;;18.20;99.90;;;;;;4980603;28;20036;-82
2023/05/22 10:02:45;;;;;;;15.00;9.00;;;18.30;99.90;;;;;;5014082;28;20108;-81
2023/05/22 10:05:20;;;;;;;12.90;8.68;;;18.30;99.90;;;;;;5011784;28;20107;-81
2023/05/22 10:07:49;;;;;;;14.95;9.68;;;18.40;99.90;;;;;;5003785;28;20037;-78
2023/05/22 10:10:18;;;;;;;12.68;10.05;;;18.50;99.90;;;;;;5008847;28;20077;-78
2023/05/22 10:12:52;;;;;;;18.10;9.50;;;18.50;99.90;;;;;;4637339;28;10000012;-78
2023/05/22 10:15:19;;;;;;;13.38;9.98;;;18.50;99.90;;;;;;4994597;28;20054;-77
2023/05/22 10:17:45;;;;;;;17.45;10.48;;;18.70;99.90;;;;;;5007170;28;20056;-78
2023/05/22 10:20:11;;;;;;;14.82;9.80;;;18.80;99.90;;;;;;4991748;28;20046;-79
2023/05/22 10:22:37;;;;;;;12.73;9.90;;;18.90;99.90;;;;;;4992827;28;20456;-79
2023/05/22 10:25:04;;;;;;;16.23;10.60;;;18.90;99.90;;;;;;5010393;28;20057;-79
2023/05/22 10:27:30;;;;;;;15.32;10.45;;;19.00;99.90;;;;;;4990093;28;20085;-78
2023/05/22 10:29:59;;;;;;;13.07;9.90;;;19.60;99.90;;;;;;4991748;28;20077;-79
2023/05/22 10:32:46;;;;;;;19.00;9.68;;;19.20;99.90;;;;;;4990528;28;20055;-80
2023/05/22 10:35:22;;;;;;;12.63;9.43;;;19.40;99.90;;;;;;5008862;28;20042;-79
2023/05/22 10:38:13;;;;;;;16.08;10.38;;;19.50;99.90;;;;;;4971881;28;20048;-79
2023/05/22 10:40:40;;;;;;;17.75;9.98;;;19.70;99.90;;;;;;5002947;28;20049;-78
2023/05/22 10:43:06;;;;;;;14.73;10.73;;;19.60;99.90;;;;;;5008448;28;20270;-78
2023/05/22 10:45:32;;;;;;;16.98;10.02;;;19.60;99.90;;;;;;5008149;28;20383;-79
2023/05/22 10:48:05;;;;;;;18.88;10.50;;;19.80;99.90;;;;;;5006866;28;20425;-79
2023/05/22 10:50:32;;;;;;;15.43;10.50;;;19.90;99.90;;;;;;4990324;28;20095;-79
2023/05/22 10:53:27;;;;;;;17.65;10.98;;;20.00;99.90;;;;;;5008997;28;20485;-79
2023/05/22 10:55:54;;;;;;;17.67;11.48;;;20.20;99.90;;;;;;5001824;28;20041;-79
2023/05/22 10:58:27;;;;;;;16.65;11.05;;;20.10;99.90;;;;;;5009003;28;20053;-79
2023/05/22 11:01:14;;;;;;;21.20;11.27;;;20.10;99.90;;;;;;5000498;28;20067;-79
2023/05/22 11:03:57;;;;;;;17.90;10.32;;;20.20;99.90;;;;;;5006939;28;20242;-78
2023/05/22 11:07:03;;;;;;;16.10;10.48;;;20.30;99.90;;;;;;5008126;28;20493;-79
2023/05/22 11:09:37;;;;;;;13.35;11.82;;;20.40;99.90;;;;;;4987398;28;20130;-79
2023/05/22 11:12:23;;;;;;;18.38;11.30;;;20.70;99.90;;;;;;5008743;28;20046;-79
2023/05/22 11:14:55;;;;;;;17.90;11.38;;;20.80;99.90;;;;;;5008656;28;20046;-79
2023/05/22 11:17:22;;;;;;;14.52;10.68;;;20.90;99.90;;;;;;5008844;28;20095;-79
2023/05/22 11:19:57;;;;;;;19.70;11.32;;;21.00;99.90;;;;;;5008766;28;20112;-79
2023/05/22 11:22:28;;;;;;;17.50;11.75;;;21.40;99.90;;;;;;5013217;28;20061;-79
2023/05/22 11:24:54;;;;;;;19.20;10.77;;;20.90;99.90;;;;;;5012752;28;20045;-78
2023/05/22 11:27:19;;;;;;;20.52;11.40;;;20.80;99.90;;;;;;5014108;28;20046;-79
2023/05/22 11:29:47;;;;;;;20.50;11.88;;;20.90;99.90;;;;;;4991472;28;20453;-79
2023/05/22 11:32:19;;;;;;;16.33;12.10;;;21.00;99.90;;;;;;4989629;28;20468;-78
2023/05/22 11:34:46;;;;;;;20.55;12.90;;;21.10;99.90;;;;;;5007299;28;20037;-79
2023/05/22 11:37:11;;;;;;;19.77;12.05;;;21.20;99.90;;;;;;5006608;28;20046;-79
2023/05/22 11:39:37;;;;;;;22.55;11.75;;;21.30;99.90;;;;;;5007558;28;20034;-79
2023/05/22 11:42:03;;;;;;;16.17;12.13;;;21.40;99.90;;;;;;5009477;28;20057;-79
2023/05/22 11:44:29;;;;;;;17.40;11.63;;;21.60;99.90;;;;;;5006924;28;20048;-79
2023/05/22 11:46:55;;;;;;;14.98;11.30;;;21.70;99.90;;;;;;5006772;28;20038;-78
2023/05/22 11:49:22;;;;;;;14.93;10.57;;;22.40;99.90;;;;;;5008345;28;20088;-79
2023/05/22 11:51:49;;;;;;;18.73;11.05;;;22.00;99.90;;;;;;5007997;28;20662;-79
2023/05/22 11:54:18;;;;;;;19.52;11.77;;;22.20;99.90;;;;;;5009449;28;20038;-78
2023/05/22 11:56:44;;;;;;;18.90;12.05;;;22.40;99.90;;;;;;5007855;28;20034;-79
2023/05/22 11:59:10;;;;;;;16.35;12.00;;;22.40;99.90;;;;;;4990215;28;20129;-78
2023/05/22 12:01:36;;;;;;;23.00;16.85;;;22.50;99.90;;;;;;5005288;28;20474;-78
2023/05/22 12:04:03;;;;;;;25.20;13.90;;;22.70;99.90;;;;;;4993953;28;20541;-78
2023/05/22 12:06:32;;;;;;;19.30;11.60;;;22.70;99.90;;;;;;5009446;28;20045;-78
2023/05/22 12:08:59;;;;;;;13.15;11.07;;;22.80;99.90;;;;;;5002029;28;20121;-76
2023/05/22 12:11:26;;;;;;;24.40;11.48;;;23.00;99.90;;;;;;5007787;28;20076;-76
2023/05/22 12:14:00;;;;;;;21.88;12.20;;;23.10;99.90;;;;;;5011570;28;20370;-74
2023/05/22 12:16:26;;;;;;;22.95;12.95;;;23.20;99.90;;;;;;5010617;28;20481;-76
2023/05/22 12:18:55;;;;;;;17.60;11.88;;;23.10;99.90;;;;;;5007497;28;20062;-77
2023/05/22 12:21:21;;;;;;;31.85;13.05;;;23.10;99.90;;;;;;4992767;28;20077;-77
2023/05/22 12:23:48;;;;;;;19.85;13.00;;;23.30;99.90;;;;;;5009677;28;20081;-75
2023/05/22 12:26:14;;;;;;;16.30;10.73;;;23.40;99.90;;;;;;5008342;28;20371;-75
2023/05/22 12:28:40;;;;;;;16.42;10.98;;;23.50;99.90;;;;;;5015322;28;20260;-75
2023/05/22 12:31:06;;;;;;;17.23;11.65;;;23.60;99.90;;;;;;5009609;28;20390;-75
2023/05/22 12:33:31;;;;;;;15.63;11.50;;;23.80;99.90;;;;;;4989832;28;20563;-75
2023/05/22 12:35:58;;;;;;;16.80;11.73;;;23.90;99.90;;;;;;5008752;28;20096;-77
2023/05/22 12:38:29;;;;;;;22.10;13.35;;;23.80;99.90;;;;;;5009588;28;20088;-78
2023/05/22 12:40:55;;;;;;;20.13;13.90;;;23.70;99.90;;;;;;5008401;28;20121;-77
2023/05/22 12:43:25;;;;;;;205.82;28.17;;;24.40;99.90;;;;;;5008881;28;20589;-79
2023/05/22 12:45:51;;;;;;;23.83;14.77;;;23.50;99.90;;;;;;5008829;28;20079;-74
2023/05/22 12:48:17;;;;;;;27.02;14.05;;;23.30;99.90;;;;;;5007219;28;20417;-74
2023/05/22 12:50:43;;;;;;;18.27;12.25;;;23.00;99.90;;;;;;5007361;28;20034;-75
2023/05/22 12:53:09;;;;;;;29.23;13.07;;;23.00;99.90;;;;;;4990230;28;20712;-76
2023/05/22 12:55:35;;;;;;;23.63;13.40;;;23.00;99.90;;;;;;5007332;28;20133;-74
2023/05/22 12:58:01;;;;;;;20.48;12.95;;;23.20;99.90;;;;;;5007252;28;20037;-75
2023/05/22 13:00:27;;;;;;;23.55;13.10;;;23.20;99.90;;;;;;5007829;28;20072;-76
2023/05/22 13:02:53;;;;;;;128.05;21.67;;;23.20;99.90;;;;;;5008352;28;20062;-75
2023/05/22 13:05:18;;;;;;;28.40;12.52;;;23.40;99.90;;;;;;5010564;28;20069;-75
2023/05/22 13:07:44;;;;;;;28.30;14.00;;;23.50;99.90;;;;;;5017972;28;20038;-75
2023/05/22 13:10:10;;;;;;;30.00;14.07;;;23.60;99.90;;;;;;5015671;28;20042;-76